Aviation Digital Data Service (ADDS)

Output produced by METARs form (2339 UTC 25 June 2019)
found at http://aviationweather.gov/metar/data/
 
KIAH 252320Z 2600/2706 17010KT P6SM VCSH FEW035 BKN100 OVC150 
     TEMPO 2600/2602 -RA 
     FM260200 14008KT P6SM SCT030 BKN150 
     FM261000 13007KT P6SM BKN020 
     FM261500 13008KT P6SM VCSH SCT035 
     FM261900 13010KT P6SM VCTS SCT040CB 
     FM270100 12006KT P6SM SCT030 BKN150